Time;durP1;ratioP1;P1;durP2;ratioP2;P2;SDS_P1;SDS_P2;PMS_P1;PMS_P2;Temp;Humidity;BMP_temperature;BMP_pressure;BME280_temperature;BME280_humidity;BME280_pressure;Samples;Min_cycle;Max_cycle;Signal;HPM_P1;HPM_P2
2023/07/09 00:02:50;;;;;;;3.90;3.80;;;20.20;53.20;;;;;;6215998;28;20250;-83
2023/07/09 00:05:55;;;;;;;4.70;4.27;;;20.20;53.30;;;;;;6215766;28;20231;-85
2023/07/09 00:08:58;;;;;;;4.73;4.43;;;20.10;53.30;;;;;;6219044;28;20231;-83
2023/07/09 00:12:02;;;;;;;3.90;3.70;;;20.10;53.50;;;;;;6217115;28;20235;-81
2023/07/09 00:15:09;;;;;;;4.20;4.10;;;20.00;53.60;;;;;;6224232;28;20303;-83
2023/07/09 00:18:14;;;;;;;6.00;4.90;;;20.00;53.80;;;;;;6229796;28;20250;-82
2023/07/09 00:21:21;;;;;;;4.60;4.30;;;20.00;54.00;;;;;;6211260;28;20231;-82
2023/07/09 00:24:28;;;;;;;4.30;4.00;;;19.90;53.90;;;;;;6234099;28;20269;-84
2023/07/09 00:27:33;;;;;;;4.87;4.57;;;19.90;54.10;;;;;;6229064;28;20803;-85
2023/07/09 00:30:36;;;;;;;4.57;4.30;;;19.90;54.10;;;;;;6237059;28;20239;-81
2023/07/09 00:33:48;;;;;;;4.60;4.40;;;20.00;54.00;;;;;;6233814;28;20820;-81
2023/07/09 00:36:59;;;;;;;4.50;4.20;;;20.00;53.70;;;;;;6243332;28;20239;-83
2023/07/09 00:40:04;;;;;;;4.53;4.23;;;20.00;54.00;;;;;;6218677;28;20236;-82
2023/07/09 00:43:15;;;;;;;4.27;3.90;;;20.00;54.20;;;;;;6217879;28;20842;-81
2023/07/09 00:46:54;;;;;;;4.50;4.20;;;20.00;53.90;;;;;;6215269;28;20231;-86
2023/07/09 00:50:17;;;;;;;4.43;4.03;;;20.10;53.80;;;;;;6185226;28;20246;-82
2023/07/09 00:53:29;;;;;;;4.93;4.43;;;20.00;53.90;;;;;;6216605;28;20286;-86
2023/07/09 00:56:40;;;;;;;5.60;3.73;;;20.00;53.90;;;;;;6211151;28;20625;-85
2023/07/09 00:59:45;;;;;;;4.40;4.10;;;20.00;53.90;;;;;;6214403;28;20318;-86
2023/07/09 01:02:49;;;;;;;4.60;4.30;;;20.00;54.00;;;;;;6231768;28;20257;-85
2023/07/09 01:05:57;;;;;;;4.13;3.97;;;20.00;54.00;;;;;;6209816;28;20283;-84
2023/07/09 01:09:03;;;;;;;3.90;3.80;;;20.00;54.20;;;;;;6210057;28;20235;-83
2023/07/09 01:12:09;;;;;;;4.40;4.20;;;20.00;54.30;;;;;;6206222;28;20257;-83
2023/07/09 01:15:15;;;;;;;4.17;4.07;;;19.90;54.70;;;;;;6205127;28;20866;-82
2023/07/09 01:18:18;;;;;;;4.23;4.03;;;19.90;54.40;;;;;;6205901;28;20254;-84
2023/07/09 01:21:26;;;;;;;5.00;4.70;;;19.90;54.60;;;;;;6212013;28;20255;-82
2023/07/09 01:24:51;;;;;;;4.10;3.90;;;19.90;54.70;;;;;;6214972;28;20232;-82
2023/07/09 01:27:55;;;;;;;4.53;4.33;;;19.80;54.70;;;;;;6207538;28;20240;-81
2023/07/09 01:31:04;;;;;;;4.53;4.27;;;19.80;54.80;;;;;;6200067;28;20244;-85
2023/07/09 01:34:10;;;;;;;4.33;4.13;;;19.70;55.10;;;;;;6201426;28;20236;-82
2023/07/09 01:37:21;;;;;;;4.23;3.87;;;19.70;55.20;;;;;;6195600;28;20821;-82
2023/07/09 01:40:28;;;;;;;4.03;3.83;;;19.70;55.30;;;;;;6216546;28;20235;-83
2023/07/09 01:43:36;;;;;;;4.10;3.90;;;19.70;55.40;;;;;;6202393;28;20263;-85
2023/07/09 01:46:42;;;;;;;3.70;3.60;;;19.60;55.30;;;;;;6212855;28;20242;-83
2023/07/09 01:49:48;;;;;;;4.13;3.97;;;19.60;55.60;;;;;;6215506;28;20364;-85
2023/07/09 01:52:57;;;;;;;4.30;4.10;;;19.50;55.80;;;;;;6241193;28;20263;-83
2023/07/09 01:56:03;;;;;;;4.10;3.83;;;19.50;56.00;;;;;;6210715;28;20663;-85
2023/07/09 01:59:11;;;;;;;4.17;3.87;;;19.50;55.70;;;;;;6196274;28;20231;-83
2023/07/09 02:02:18;;;;;;;4.07;3.87;;;19.50;55.80;;;;;;6208929;28;20845;-82
2023/07/09 02:05:24;;;;;;;4.70;4.30;;;19.50;55.70;;;;;;6205454;28;20244;-85
2023/07/09 02:08:29;;;;;;;5.17;4.67;;;19.50;55.90;;;;;;6198355;28;20246;-81
2023/07/09 02:11:33;;;;;;;4.47;4.27;;;19.50;55.90;;;;;;6216838;28;20618;-82
2023/07/09 02:14:38;;;;;;;4.30;4.10;;;19.50;55.90;;;;;;6217770;28;20702;-84
2023/07/09 02:17:42;;;;;;;5.37;4.13;;;19.50;56.10;;;;;;6238080;28;20718;-82
2023/07/09 02:20:47;;;;;;;3.87;3.67;;;19.40;56.30;;;;;;6217797;28;20702;-85
2023/07/09 02:23:53;;;;;;;4.27;3.97;;;19.40;56.20;;;;;;6231403;28;20326;-84
2023/07/09 02:26:58;;;;;;;4.10;4.00;;;19.40;56.10;;;;;;6210864;28;20391;-83
2023/07/09 02:30:02;;;;;;;4.50;4.37;;;19.30;56.30;;;;;;6237723;28;20249;-83
2023/07/09 02:33:06;;;;;;;5.00;4.67;;;19.40;56.40;;;;;;6229855;28;20712;-81
2023/07/09 02:36:10;;;;;;;4.37;4.17;;;19.30;56.30;;;;;;6240561;28;20258;-84
2023/07/09 02:39:15;;;;;;;3.90;3.60;;;19.30;56.30;;;;;;6239080;28;20238;-83
2023/07/09 02:42:21;;;;;;;4.10;4.00;;;19.30;56.40;;;;;;6226624;28;20277;-82
2023/07/09 02:45:24;;;;;;;4.33;4.13;;;19.20;56.20;;;;;;6222783;28;20234;-84
2023/07/09 02:48:29;;;;;;;4.20;4.00;;;19.20;56.50;;;;;;6234864;28;20255;-83
2023/07/09 02:51:34;;;;;;;4.83;4.30;;;19.10;56.90;;;;;;6220336;28;20271;-84
2023/07/09 02:54:41;;;;;;;4.90;4.57;;;19.10;56.80;;;;;;6220434;28;20265;-82
2023/07/09 02:57:44;;;;;;;4.50;4.20;;;19.00;56.80;;;;;;6238097;28;20261;-81
2023/07/09 03:00:52;;;;;;;4.97;4.43;;;19.00;56.90;;;;;;6231887;28;20293;-84
2023/07/09 03:03:57;;;;;;;3.90;3.73;;;19.00;56.90;;;;;;6223683;28;20238;-83
2023/07/09 03:07:01;;;;;;;4.37;4.13;;;18.90;57.00;;;;;;6233564;28;20235;-82
2023/07/09 03:10:07;;;;;;;4.60;4.40;;;18.90;57.10;;;;;;6221505;28;20239;-80
2023/07/09 03:13:10;;;;;;;3.90;3.80;;;18.90;57.00;;;;;;6206301;28;20250;-83
2023/07/09 03:16:14;;;;;;;4.63;4.43;;;18.90;57.00;;;;;;6213110;28;20247;-82
2023/07/09 03:19:18;;;;;;;4.20;4.00;;;18.80;57.30;;;;;;6224077;28;20645;-83
2023/07/09 03:22:21;;;;;;;4.20;4.10;;;18.80;57.40;;;;;;6242425;28;20257;-83
2023/07/09 03:25:26;;;;;;;4.10;3.93;;;18.80;57.50;;;;;;6236717;28;20318;-83
2023/07/09 03:28:31;;;;;;;4.13;3.83;;;18.70;57.50;;;;;;6238871;28;20231;-82
2023/07/09 03:31:36;;;;;;;4.50;4.20;;;18.70;57.50;;;;;;6236397;28;20673;-80
2023/07/09 03:34:39;;;;;;;3.87;3.60;;;18.70;57.40;;;;;;6238710;28;20610;-78
2023/07/09 03:37:42;;;;;;;4.70;4.30;;;18.80;57.50;;;;;;6237760;28;20234;-79
2023/07/09 03:40:50;;;;;;;4.53;4.30;;;18.70;57.60;;;;;;6235229;28;20306;-80
2023/07/09 03:43:53;;;;;;;5.00;4.60;;;18.80;57.70;;;;;;6240981;28;20250;-79
2023/07/09 03:46:56;;;;;;;4.87;4.47;;;18.80;57.90;;;;;;6235661;28;20250;-79
2023/07/09 03:50:00;;;;;;;4.30;4.20;;;18.70;58.00;;;;;;6238087;28;20715;-79
2023/07/09 03:53:03;;;;;;;4.87;4.67;;;18.80;58.00;;;;;;6216915;28;20292;-79
2023/07/09 03:56:08;;;;;;;4.80;4.60;;;18.80;57.90;;;;;;6235143;28;20235;-80
2023/07/09 03:59:11;;;;;;;5.57;4.77;;;18.80;57.90;;;;;;6233877;28;20235;-80
2023/07/09 04:02:14;;;;;;;4.43;4.20;;;18.80;58.00;;;;;;6228227;28;20254;-79
2023/07/09 04:05:18;;;;;;;5.03;4.60;;;18.80;58.20;;;;;;6229808;28;20247;-81
2023/07/09 04:08:21;;;;;;;4.63;4.40;;;18.90;58.20;;;;;;6237929;28;20778;-79
2023/07/09 04:11:26;;;;;;;5.40;5.10;;;18.80;58.20;;;;;;6233185;28;20871;-81
2023/07/09 04:14:29;;;;;;;4.70;4.43;;;18.90;58.30;;;;;;6239200;28;20914;-79
2023/07/09 04:17:32;;;;;;;4.93;4.70;;;18.90;58.40;;;;;;6237281;28;20238;-79
2023/07/09 04:20:35;;;;;;;4.93;4.50;;;18.90;58.60;;;;;;6235893;28;20266;-79
2023/07/09 04:23:39;;;;;;;4.60;4.30;;;18.90;58.80;;;;;;6216214;28;20238;-80
2023/07/09 04:26:43;;;;;;;5.37;4.97;;;18.90;59.00;;;;;;6205076;28;20262;-80
2023/07/09 04:29:48;;;;;;;4.77;4.57;;;18.90;59.00;;;;;;6211899;28;20816;-79
2023/07/09 04:32:52;;;;;;;4.30;4.20;;;19.00;59.00;;;;;;6218940;28;20236;-78
2023/07/09 04:35:56;;;;;;;4.50;4.30;;;19.00;59.00;;;;;;6212547;28;20365;-79
2023/07/09 04:38:59;;;;;;;4.83;4.63;;;19.00;58.90;;;;;;6208906;28;20243;-80
2023/07/09 04:42:05;;;;;;;4.60;4.40;;;19.00;58.90;;;;;;6212678;28;20597;-78
2023/07/09 04:45:11;;;;;;;4.70;4.50;;;19.10;59.00;;;;;;6230659;28;20312;-78
2023/07/09 04:48:14;;;;;;;4.67;4.47;;;19.20;59.00;;;;;;6221533;28;20242;-78
2023/07/09 04:51:17;;;;;;;4.20;4.10;;;19.30;59.00;;;;;;6213717;28;20247;-79
2023/07/09 04:54:22;;;;;;;5.03;4.60;;;19.40;58.90;;;;;;6205251;28;20254;-78
2023/07/09 04:57:28;;;;;;;5.60;5.30;;;19.50;59.20;;;;;;6206429;28;20284;-80
2023/07/09 05:00:31;;;;;;;5.40;4.77;;;19.60;58.80;;;;;;6211635;28;20267;-79
2023/07/09 05:03:34;;;;;;;4.67;4.37;;;19.70;58.20;;;;;;6205702;28;20239;-80
2023/07/09 05:06:37;;;;;;;4.07;3.97;;;20.00;58.00;;;;;;6203433;28;20243;-79
2023/07/09 05:09:41;;;;;;;4.17;4.07;;;20.30;56.80;;;;;;6209035;28;20232;-78
2023/07/09 05:12:54;;;;;;;4.03;3.93;;;20.60;55.50;;;;;;6209326;28;20291;-80
2023/07/09 05:15:57;;;;;;;4.80;4.50;;;20.90;55.00;;;;;;6207949;28;20623;-80
2023/07/09 05:19:00;;;;;;;4.37;4.17;;;21.30;54.90;;;;;;6209407;28;20231;-79
2023/07/09 05:22:04;;;;;;;4.20;4.10;;;21.50;53.10;;;;;;6217794;28;20235;-79
2023/07/09 05:25:08;;;;;;;4.40;4.17;;;21.90;54.10;;;;;;6216980;28;20242;-79
2023/07/09 05:28:12;;;;;;;4.40;4.00;;;22.20;53.00;;;;;;6207193;28;20241;-79
2023/07/09 05:31:15;;;;;;;4.80;4.50;;;22.50;51.40;;;;;;6211341;28;20851;-79
2023/07/09 05:34:19;;;;;;;4.77;4.27;;;22.80;51.80;;;;;;6215138;28;20247;-79
2023/07/09 05:37:22;;;;;;;5.30;4.13;;;23.10;50.60;;;;;;6204949;28;20236;-79
2023/07/09 05:40:25;;;;;;;4.30;4.00;;;23.40;50.30;;;;;;6206089;28;20235;-81
2023/07/09 05:43:29;;;;;;;4.10;4.00;;;23.70;50.80;;;;;;6203854;28;20378;-81
2023/07/09 05:46:35;;;;;;;4.80;4.30;;;24.00;51.40;;;;;;6203912;28;20246;-80
2023/07/09 05:49:39;;;;;;;3.90;3.80;;;24.20;51.60;;;;;;6201423;28;20228;-82
2023/07/09 05:52:42;;;;;;;4.23;3.93;;;24.50;51.20;;;;;;6209093;28;20316;-79
2023/07/09 05:55:46;;;;;;;3.73;3.63;;;24.70;51.00;;;;;;6206859;28;20740;-78
2023/07/09 05:58:50;;;;;;;4.70;4.40;;;25.00;49.90;;;;;;6199528;28;20313;-79
2023/07/09 06:01:53;;;;;;;4.40;4.20;;;25.20;48.40;;;;;;6207050;28;20247;-79
2023/07/09 06:04:58;;;;;;;4.57;4.17;;;25.30;48.20;;;;;;6204773;28;20851;-80
2023/07/09 06:08:01;;;;;;;4.60;4.40;;;25.50;48.50;;;;;;6210797;28;20223;-79
2023/07/09 06:11:05;;;;;;;4.27;4.00;;;25.80;47.20;;;;;;6209610;28;20235;-80
2023/07/09 06:14:10;;;;;;;6.40;3.97;;;26.10;47.70;;;;;;6207579;28;20297;-76
2023/07/09 06:17:13;;;;;;;5.93;4.10;;;26.40;47.20;;;;;;6203118;28;20345;-79
2023/07/09 06:20:17;;;;;;;4.10;3.90;;;26.50;47.50;;;;;;6203000;28;20235;-80
2023/07/09 06:23:20;;;;;;;4.80;4.23;;;26.70;47.40;;;;;;6207171;28;20231;-80
2023/07/09 06:26:24;;;;;;;4.37;4.10;;;26.90;47.00;;;;;;6210789;28;20323;-79
2023/07/09 06:29:29;;;;;;;4.50;4.20;;;27.10;46.80;;;;;;6203778;28;20349;-78
2023/07/09 06:32:32;;;;;;;4.50;4.20;;;27.10;45.00;;;;;;6203492;28;20235;-80
2023/07/09 06:35:36;;;;;;;4.20;4.00;;;27.20;46.40;;;;;;6207590;28;20373;-80
2023/07/09 06:38:39;;;;;;;4.73;4.33;;;27.20;45.60;;;;;;6212914;28;20251;-80
2023/07/09 06:41:42;;;;;;;6.27;4.40;;;27.40;46.60;;;;;;6209977;28;20809;-77
2023/07/09 06:44:46;;;;;;;4.37;4.07;;;27.70;45.30;;;;;;6197352;28;20246;-83
2023/07/09 06:47:52;;;;;;;4.73;4.23;;;27.90;46.00;;;;;;6211593;28;20711;-81
2023/07/09 06:50:58;;;;;;;4.03;3.83;;;28.10;44.90;;;;;;6203757;28;20313;-80
2023/07/09 06:54:01;;;;;;;4.50;4.20;;;28.30;44.20;;;;;;6212060;28;20903;-83
2023/07/09 06:57:05;;;;;;;4.57;4.40;;;28.30;45.70;;;;;;6208247;28;20410;-81
2023/07/09 07:00:11;;;;;;;5.38;5.07;;;28.50;44.50;;;;;;6210339;28;20299;-82
2023/07/09 07:03:14;;;;;;;4.57;4.38;;;28.50;44.80;;;;;;6218087;28;20692;-79
2023/07/09 07:06:18;;;;;;;5.15;4.88;;;28.70;44.70;;;;;;6203009;28;20231;-80
2023/07/09 07:09:21;;;;;;;4.15;4.05;;;28.90;44.50;;;;;;6199199;28;20247;-79
2023/07/09 07:12:26;;;;;;;5.20;4.25;;;29.00;44.90;;;;;;6200046;28;20240;-78
2023/07/09 07:15:31;;;;;;;5.45;5.07;;;29.10;44.40;;;;;;6212128;28;20263;-80
2023/07/09 07:18:34;;;;;;;4.55;4.20;;;29.00;45.20;;;;;;6210450;28;20239;-79
2023/07/09 07:21:37;;;;;;;4.63;4.28;;;29.00;45.50;;;;;;6206832;28;20290;-81
2023/07/09 07:24:40;;;;;;;4.53;4.35;;;29.00;44.00;;;;;;6217246;28;20318;-82
2023/07/09 07:27:43;;;;;;;5.45;4.95;;;29.00;44.70;;;;;;6211092;28;20311;-77
2023/07/09 07:30:58;;;;;;;5.45;4.93;;;28.90;44.70;;;;;;6215455;28;20377;-76
2023/07/09 07:34:01;;;;;;;4.90;4.47;;;28.90;44.00;;;;;;6208700;28;20250;-74
2023/07/09 07:37:04;;;;;;;5.47;4.93;;;28.90;44.70;;;;;;6218773;28;20266;-76
2023/07/09 07:40:09;;;;;;;4.53;4.32;;;28.90;45.20;;;;;;6235832;28;20263;-83
2023/07/09 07:43:16;;;;;;;4.55;4.35;;;28.70;44.80;;;;;;6227851;28;20437;-79
2023/07/09 07:46:21;;;;;;;5.38;5.18;;;28.80;44.80;;;;;;6213990;28;20765;-78
2023/07/09 07:49:24;;;;;;;5.10;4.80;;;28.90;45.20;;;;;;6216164;28;20254;-78
2023/07/09 07:52:29;;;;;;;5.30;4.90;;;28.90;45.40;;;;;;6208265;28;20310;-78
2023/07/09 07:55:32;;;;;;;4.82;4.63;;;28.70;45.90;;;;;;6214044;28;20599;-79
2023/07/09 07:58:35;;;;;;;5.07;4.80;;;28.60;45.20;;;;;;6216732;28;20243;-79
2023/07/09 08:01:40;;;;;;;5.10;4.90;;;28.40;45.50;;;;;;6204067;28;20262;-76
2023/07/09 08:04:44;;;;;;;5.10;4.80;;;28.30;45.30;;;;;;6236420;28;20338;-79
2023/07/09 08:07:47;;;;;;;4.40;4.13;;;28.30;45.70;;;;;;6241877;28;20238;-78
2023/07/09 08:10:51;;;;;;;5.15;4.95;;;28.10;45.20;;;;;;6237962;28;20788;-79
2023/07/09 08:13:54;;;;;;;5.07;4.78;;;28.10;45.00;;;;;;6242283;28;20238;-80
2023/07/09 08:16:59;;;;;;;5.60;5.10;;;28.00;45.20;;;;;;6243310;28;20314;-77
2023/07/09 08:20:02;;;;;;;5.07;4.85;;;28.10;45.50;;;;;;6242396;28;20235;-80
2023/07/09 08:23:06;;;;;;;5.40;4.80;;;28.10;45.40;;;;;;6240948;28;20230;-77
2023/07/09 08:26:09;;;;;;;4.57;4.38;;;28.10;45.50;;;;;;6246463;28;20285;-81
2023/07/09 08:29:12;;;;;;;5.53;4.97;;;28.10;45.80;;;;;;6239282;28;20710;-79
2023/07/09 08:32:17;;;;;;;5.00;4.78;;;28.10;44.90;;;;;;6242166;28;20238;-77
2023/07/09 08:35:20;;;;;;;5.47;5.18;;;28.20;45.10;;;;;;6261461;28;20238;-77
2023/07/09 08:38:26;;;;;;;5.00;4.75;;;28.30;45.50;;;;;;6251580;28;20243;-77
2023/07/09 08:41:45;;;;;;;5.30;5.03;;;28.30;45.80;;;;;;6236611;28;20372;-75
2023/07/09 08:45:04;;;;;;;5.45;5.15;;;28.30;45.80;;;;;;6225129;28;20309;-76
2023/07/09 08:48:14;;;;;;;4.60;4.40;;;28.40;45.20;;;;;;6237995;28;20242;-76
2023/07/09 08:51:25;;;;;;;5.30;4.80;;;28.50;45.80;;;;;;6230583;28;20263;-77
2023/07/09 08:54:32;;;;;;;5.72;5.22;;;28.70;45.50;;;;;;6235633;28;20732;-76
2023/07/09 08:57:39;;;;;;;5.47;5.15;;;28.90;45.40;;;;;;6232235;28;20727;-76
2023/07/09 09:00:49;;;;;;;5.10;4.90;;;29.10;44.60;;;;;;6237996;28;20253;-82
2023/07/09 09:04:03;;;;;;;4.85;4.55;;;29.30;44.40;;;;;;6231054;28;20687;-80
2023/07/09 09:07:20;;;;;;;5.38;4.90;;;29.40;43.40;;;;;;6235744;28;20253;-80
2023/07/09 09:10:33;;;;;;;4.82;4.53;;;29.70;43.20;;;;;;6234477;28;20718;-79
2023/07/09 09:13:39;;;;;;;4.95;4.65;;;29.90;43.30;;;;;;6212025;28;20232;-78
2023/07/09 09:16:46;;;;;;;4.43;4.30;;;29.80;42.10;;;;;;6232459;28;20725;-79
2023/07/09 09:19:55;;;;;;;4.40;4.25;;;29.90;42.60;;;;;;6230367;28;20373;-78
2023/07/09 09:23:11;;;;;;;4.32;4.18;;;30.00;42.00;;;;;;6239543;28;20250;-81
2023/07/09 09:26:19;;;;;;;4.28;4.05;;;30.30;41.90;;;;;;6235874;28;20231;-79
2023/07/09 09:29:25;;;;;;;3.92;3.83;;;30.50;41.80;;;;;;6235132;28;20246;-78
2023/07/09 09:32:31;;;;;;;4.85;4.60;;;30.60;41.50;;;;;;6238199;28;20306;-79
2023/07/09 09:35:38;;;;;;;4.40;4.20;;;30.60;40.50;;;;;;6240997;28;20743;-80
2023/07/09 09:38:43;;;;;;;5.00;4.63;;;30.70;39.70;;;;;;6237726;28;20234;-81
2023/07/09 09:41:47;;;;;;;4.25;4.15;;;30.60;39.70;;;;;;6220492;28;20814;-80
2023/07/09 09:44:50;;;;;;;4.55;4.35;;;30.60;40.00;;;;;;6226610;28;20261;-80
2023/07/09 09:47:53;;;;;;;4.50;4.30;;;30.60;40.70;;;;;;6239795;28;20317;-79
2023/07/09 09:51:01;;;;;;;4.72;4.43;;;30.70;40.00;;;;;;6228358;28;20867;-79
2023/07/09 09:54:19;;;;;;;4.82;4.43;;;30.70;40.20;;;;;;6205769;28;20692;-83
2023/07/09 09:57:25;;;;;;;4.88;4.60;;;30.60;39.80;;;;;;6212942;28;20247;-81
2023/07/09 10:00:33;;;;;;;5.13;4.80;;;30.50;40.50;;;;;;6204849;28;20338;-78
2023/07/09 10:03:38;;;;;;;5.00;4.45;;;30.60;39.90;;;;;;6202580;28;20310;-80
2023/07/09 10:06:47;;;;;;;4.68;4.47;;;30.60;40.00;;;;;;6218204;28;20235;-80
2023/07/09 10:09:53;;;;;;;4.38;4.25;;;30.50;40.00;;;;;;6222299;28;20292;-81
2023/07/09 10:13:03;;;;;;;5.05;4.80;;;30.50;41.30;;;;;;6229708;28;20730;-81
2023/07/09 10:16:12;;;;;;;5.25;4.90;;;30.30;40.20;;;;;;6221494;28;20292;-79
2023/07/09 10:19:24;;;;;;;4.38;4.13;;;30.30;40.30;;;;;;6237990;28;20230;-79
2023/07/09 10:22:40;;;;;;;5.40;5.00;;;30.30;41.10;;;;;;6225360;28;20239;-79
2023/07/09 10:25:53;;;;;;;5.25;4.97;;;30.50;40.00;;;;;;6228077;28;20848;-81
2023/07/09 10:29:29;;;;;;;4.20;4.10;;;30.40;40.50;;;;;;6245653;28;20304;-78
2023/07/09 10:32:43;;;;;;;5.38;4.88;;;30.50;40.90;;;;;;6211282;28;20760;-78
2023/07/09 10:35:54;;;;;;;5.15;4.95;;;30.50;40.30;;;;;;6212823;28;20243;-78
2023/07/09 10:39:05;;;;;;;4.82;4.72;;;30.60;40.20;;;;;;6209252;28;20235;-81
2023/07/09 10:42:19;;;;;;;4.70;4.60;;;30.50;40.40;;;;;;6216190;28;20236;-79
2023/07/09 10:45:33;;;;;;;5.25;4.88;;;30.60;40.20;;;;;;6216058;28;20639;-80
2023/07/09 10:48:41;;;;;;;4.72;4.60;;;30.70;40.20;;;;;;6208351;28;20242;-79
2023/07/09 10:51:50;;;;;;;5.00;4.70;;;30.80;40.10;;;;;;6203478;28;20272;-80
2023/07/09 10:55:01;;;;;;;4.90;4.60;;;30.90;40.60;;;;;;6214649;28;20308;-78
2023/07/09 10:58:24;;;;;;;4.53;4.32;;;30.80;40.10;;;;;;6217125;28;20262;-79
2023/07/09 11:01:32;;;;;;;5.38;4.80;;;31.00;40.70;;;;;;6222165;28;20319;-79
2023/07/09 11:04:41;;;;;;;4.90;4.60;;;31.20;40.60;;;;;;6216296;28;20242;-79
2023/07/09 11:07:49;;;;;;;4.70;4.45;;;31.10;39.90;;;;;;6215134;28;20239;-80
2023/07/09 11:11:03;;;;;;;5.35;4.97;;;31.00;40.30;;;;;;6216852;28;20251;-81
2023/07/09 11:14:17;;;;;;;5.28;5.00;;;31.20;40.70;;;;;;6215810;28;20243;-79
2023/07/09 11:17:23;;;;;;;4.82;4.63;;;31.20;39.80;;;;;;6234757;28;20481;-79
2023/07/09 11:20:32;;;;;;;5.50;5.25;;;31.20;40.40;;;;;;6237568;28;20254;-80
2023/07/09 11:23:40;;;;;;;4.88;4.43;;;31.40;39.10;;;;;;6236637;28;20270;-81
2023/07/09 11:26:50;;;;;;;5.30;5.05;;;31.30;40.10;;;;;;6232498;28;20236;-79
2023/07/09 11:30:01;;;;;;;5.88;5.50;;;31.30;39.80;;;;;;6217668;28;20999;-79
2023/07/09 11:33:05;;;;;;;4.65;4.45;;;31.30;40.90;;;;;;6217379;28;20247;-80
2023/07/09 11:36:28;;;;;;;5.45;5.15;;;31.20;40.20;;;;;;6206412;28;20232;-77
2023/07/09 11:39:42;;;;;;;4.47;4.38;;;31.40;40.60;;;;;;6211520;28;20826;-78
2023/07/09 11:42:53;;;;;;;5.40;5.10;;;31.50;39.90;;;;;;6225667;28;20810;-80
2023/07/09 11:46:08;;;;;;;5.22;4.93;;;31.60;39.50;;;;;;6224512;28;20235;-81
2023/07/09 11:49:12;;;;;;;5.75;5.30;;;31.70;39.90;;;;;;6252756;28;20239;-80
2023/07/09 11:52:20;;;;;;;5.45;5.00;;;31.80;39.80;;;;;;6239358;28;20342;-81
2023/07/09 11:55:29;;;;;;;5.72;5.53;;;32.00;39.60;;;;;;6238455;28;20719;-79
2023/07/09 11:58:33;;;;;;;5.68;5.32;;;32.10;38.80;;;;;;6237407;28;20239;-81
2023/07/09 12:01:43;;;;;;;5.78;5.47;;;32.10;39.80;;;;;;6233753;28;20339;-82
2023/07/09 12:04:50;;;;;;;6.18;5.63;;;32.00;39.00;;;;;;6239579;28;20235;-82
2023/07/09 12:07:54;;;;;;;5.72;5.40;;;32.00;39.40;;;;;;6237929;28;20318;-80
2023/07/09 12:10:57;;;;;;;5.28;5.07;;;32.00;40.10;;;;;;6238931;28;20329;-80
2023/07/09 12:14:04;;;;;;;5.68;5.47;;;32.20;39.70;;;;;;6238585;28;20234;-81
2023/07/09 12:17:10;;;;;;;5.13;4.93;;;32.40;39.50;;;;;;6239170;28;20231;-81
2023/07/09 12:20:14;;;;;;;5.80;5.38;;;32.50;39.00;;;;;;6232351;28;20605;-81
2023/07/09 12:23:23;;;;;;;5.65;5.28;;;32.40;39.30;;;;;;6239853;28;20235;-81
2023/07/09 12:26:26;;;;;;;5.40;5.10;;;32.50;38.70;;;;;;6240108;28;20338;-80
2023/07/09 12:29:35;;;;;;;5.25;5.05;;;32.50;38.70;;;;;;6239130;28;20241;-80
2023/07/09 12:32:45;;;;;;;6.43;5.97;;;32.50;39.50;;;;;;6242122;28;20772;-81
2023/07/09 12:35:54;;;;;;;5.90;5.50;;;32.50;38.70;;;;;;6238473;28;20739;-79
2023/07/09 12:39:02;;;;;;;5.55;5.28;;;32.50;38.00;;;;;;6203641;28;20299;-81
2023/07/09 12:42:06;;;;;;;5.07;4.85;;;32.50;38.20;;;;;;6197445;28;20321;-82
2023/07/09 12:48:37;;;;;;;5.43;5.13;;;32.50;38.60;;;;;;6270397;27;1272359;-80
2023/07/09 12:51:40;;;;;;;4.75;4.55;;;32.40;38.20;;;;;;6280974;28;20676;-80
2023/07/09 12:54:55;;;;;;;5.25;4.80;;;32.40;39.00;;;;;;6280985;28;20283;-81
2023/07/09 12:58:00;;;;;;;5.47;5.18;;;32.30;38.70;;;;;;6271080;28;20313;-79
2023/07/09 13:01:07;;;;;;;4.85;4.75;;;32.30;38.80;;;;;;6286066;28;20722;-79
2023/07/09 13:04:13;;;;;;;4.82;4.60;;;32.40;39.20;;;;;;6271789;28;20391;-79
2023/07/09 13:07:31;;;;;;;5.43;5.13;;;32.50;39.20;;;;;;6269781;28;20265;-79
2023/07/09 13:10:42;;;;;;;4.60;4.40;;;32.50;38.30;;;;;;6282272;28;20233;-80
2023/07/09 13:13:56;;;;;;;4.80;4.50;;;32.50;38.70;;;;;;6290466;28;20253;-81
2023/07/09 13:17:05;;;;;;;5.28;4.97;;;32.60;38.30;;;;;;6294689;28;20282;-82
2023/07/09 13:20:10;;;;;;;5.40;5.10;;;32.70;38.30;;;;;;6313246;28;20243;-83
2023/07/09 13:23:17;;;;;;;5.60;5.35;;;32.80;37.70;;;;;;6314142;28;20237;-80
2023/07/09 13:26:20;;;;;;;6.15;5.78;;;32.60;38.10;;;;;;6297443;28;20713;-80
2023/07/09 13:29:23;;;;;;;5.57;5.20;;;32.80;38.50;;;;;;6303133;28;20233;-83
2023/07/09 13:32:26;;;;;;;5.68;5.43;;;32.80;37.90;;;;;;6300664;28;20316;-82
2023/07/09 13:35:30;;;;;;;5.32;5.03;;;32.70;37.60;;;;;;6300960;28;20731;-82
2023/07/09 13:38:34;;;;;;;5.57;5.30;;;32.60;38.10;;;;;;6281667;28;20232;-83
2023/07/09 13:41:40;;;;;;;5.18;4.80;;;32.60;37.90;;;;;;6282100;28;20228;-83
2023/07/09 13:44:46;;;;;;;5.38;5.07;;;32.60;38.60;;;;;;6283451;28;20635;-82
2023/07/09 13:47:53;;;;;;;5.25;4.93;;;32.80;38.20;;;;;;6272820;28;20317;-85
2023/07/09 13:51:02;;;;;;;6.07;5.35;;;32.80;38.20;;;;;;6280797;28;20341;-84
2023/07/09 13:54:16;;;;;;;5.70;5.28;;;32.80;38.10;;;;;;6272915;28;20233;-82
2023/07/09 13:57:22;;;;;;;4.65;4.35;;;32.80;37.80;;;;;;6262945;28;20783;-83
2023/07/09 14:00:25;;;;;;;6.82;5.63;;;32.90;38.20;;;;;;6260373;28;20375;-82
2023/07/09 14:03:32;;;;;;;5.63;5.32;;;32.80;37.70;;;;;;6263334;28;20870;-82
2023/07/09 14:06:37;;;;;;;5.10;4.80;;;32.60;38.60;;;;;;6251492;28;20235;-79
2023/07/09 14:09:40;;;;;;;5.25;5.05;;;32.60;38.40;;;;;;6264705;28;20286;-78
2023/07/09 14:12:47;;;;;;;5.18;4.93;;;32.70;38.40;;;;;;6262899;28;20875;-78
2023/07/09 14:15:50;;;;;;;5.65;5.35;;;32.80;38.50;;;;;;6251515;28;20247;-79
2023/07/09 14:18:53;;;;;;;5.25;4.80;;;32.90;38.50;;;;;;6258577;28;20238;-78
2023/07/09 14:21:58;;;;;;;5.45;5.03;;;33.00;38.20;;;;;;6266133;28;20387;-81
2023/07/09 14:25:02;;;;;;;4.70;4.40;;;33.10;37.70;;;;;;6252893;28;20254;-81
2023/07/09 14:28:14;;;;;;;4.72;4.53;;;33.10;38.10;;;;;;6257353;28;20315;-80
2023/07/09 14:31:24;;;;;;;4.80;4.70;;;33.10;37.90;;;;;;6264852;28;20329;-79
2023/07/09 14:34:30;;;;;;;4.97;4.78;;;33.10;37.70;;;;;;6274043;28;20229;-81
2023/07/09 14:37:34;;;;;;;5.07;4.68;;;33.10;37.80;;;;;;6261955;28;20300;-80
2023/07/09 14:40:37;;;;;;;5.28;4.97;;;33.00;37.40;;;;;;6252889;28;20844;-81
2023/07/09 14:43:41;;;;;;;4.82;4.43;;;33.10;37.70;;;;;;6269300;28;20381;-80
2023/07/09 14:46:44;;;;;;;5.57;5.07;;;33.10;38.00;;;;;;6264050;28;20287;-78
2023/07/09 14:49:47;;;;;;;4.78;4.57;;;33.10;37.60;;;;;;6263812;28;20235;-80
2023/07/09 14:52:52;;;;;;;5.35;4.95;;;33.10;37.30;;;;;;6265589;28;20256;-79
2023/07/09 14:55:55;;;;;;;5.50;4.70;;;33.00;37.10;;;;;;6260820;28;20324;-79
2023/07/09 14:58:58;;;;;;;4.78;4.10;;;32.90;37.20;;;;;;6242321;28;20261;-78
2023/07/09 15:02:21;;;;;;;5.20;5.00;;;32.90;37.50;;;;;;6243096;28;20320;-81
2023/07/09 15:05:26;;;;;;;5.40;5.20;;;33.00;37.60;;;;;;6260965;28;20230;-81
2023/07/09 15:08:33;;;;;;;5.60;5.15;;;33.00;37.80;;;;;;6249937;28;20242;-80
2023/07/09 15:11:36;;;;;;;5.28;4.88;;;32.90;37.20;;;;;;6250573;28;20250;-80
2023/07/09 15:14:40;;;;;;;4.32;4.13;;;32.90;37.60;;;;;;6251785;28;20245;-78
2023/07/09 15:17:43;;;;;;;4.93;4.63;;;33.00;37.70;;;;;;6244126;28;20741;-82
2023/07/09 15:20:51;;;;;;;5.75;5.28;;;33.00;37.60;;;;;;6258477;28;20235;-82
2023/07/09 15:23:55;;;;;;;4.38;4.13;;;33.10;38.20;;;;;;6251889;28;20709;-80
2023/07/09 15:27:00;;;;;;;5.22;4.93;;;33.20;38.10;;;;;;6267027;28;20315;-79
2023/07/09 15:30:11;;;;;;;5.25;4.85;;;33.20;38.30;;;;;;6265270;28;20234;-78
2023/07/09 15:33:16;;;;;;;4.70;4.50;;;33.20;38.60;;;;;;6247821;28;20317;-79
2023/07/09 15:36:19;;;;;;;4.50;4.30;;;33.10;37.60;;;;;;6257349;28;20237;-79
2023/07/09 15:39:26;;;;;;;5.22;4.97;;;33.10;37.60;;;;;;6271418;28;20327;-81
2023/07/09 15:42:29;;;;;;;5.60;5.20;;;33.10;37.80;;;;;;6266416;28;20285;-80
2023/07/09 15:45:33;;;;;;;5.55;5.35;;;33.00;37.60;;;;;;6261392;28;20299;-79
2023/07/09 15:48:37;;;;;;;5.40;5.07;;;33.00;37.50;;;;;;6248742;28;20946;-79
2023/07/09 15:51:40;;;;;;;4.57;4.28;;;32.90;37.10;;;;;;6264939;28;20284;-81
2023/07/09 15:54:45;;;;;;;4.50;4.40;;;32.80;37.50;;;;;;6270802;28;20230;-79
2023/07/09 15:57:50;;;;;;;4.90;4.72;;;32.80;37.60;;;;;;6263816;28;20239;-79
2023/07/09 16:00:54;;;;;;;4.80;4.53;;;32.90;38.20;;;;;;6264438;28;20247;-81
2023/07/09 16:04:08;;;;;;;4.80;4.60;;;33.00;38.10;;;;;;6254920;28;20234;-81
2023/07/09 16:07:12;;;;;;;5.40;5.15;;;33.00;37.80;;;;;;6248974;28;20333;-79
2023/07/09 16:10:16;;;;;;;4.75;4.55;;;33.00;38.10;;;;;;6276630;28;20625;-80
2023/07/09 16:13:21;;;;;;;5.50;5.07;;;32.90;37.90;;;;;;6250143;28;20238;-80
2023/07/09 16:16:26;;;;;;;5.63;5.30;;;32.90;38.00;;;;;;6270067;28;20931;-81